Time;durP1;ratioP1;P1;durP2;ratioP2;P2;SDS_P1;SDS_P2;PMS_P1;PMS_P2;Temp;Humidity;BMP_temperature;BMP_pressure;BME280_temperature;BME280_humidity;BME280_pressure;Samples;Min_cycle;Max_cycle;Signal;HPM_P1;HPM_P2
2022/09/13 00:00:12;;;;;;;22.42;16.02;;;17.60;99.90;;;;;;4968828;28;20073;-84
2022/09/13 00:02:37;;;;;;;21.23;16.65;;;17.60;99.90;;;;;;4973706;28;20077;-84
2022/09/13 00:05:03;;;;;;;24.67;17.60;;;17.60;99.90;;;;;;4959056;28;20046;-84
2022/09/13 00:07:29;;;;;;;24.40;16.88;;;17.60;99.90;;;;;;4949499;28;20484;-84
2022/09/13 00:09:54;;;;;;;21.88;16.25;;;17.60;99.90;;;;;;4976417;28;20132;-84
2022/09/13 00:12:20;;;;;;;24.42;17.60;;;17.60;99.90;;;;;;4972555;28;20050;-84
2022/09/13 00:14:45;;;;;;;24.40;18.15;;;17.60;99.90;;;;;;4974948;28;20057;-84
2022/09/13 00:17:11;;;;;;;25.10;18.50;;;17.60;99.90;;;;;;4968224;28;20407;-84
2022/09/13 00:19:36;;;;;;;24.23;18.05;;;17.60;99.90;;;;;;4988490;28;20078;-84
2022/09/13 00:22:02;;;;;;;25.80;19.08;;;17.50;99.90;;;;;;4958280;28;20049;-84
2022/09/13 00:24:27;;;;;;;23.05;18.45;;;17.50;99.90;;;;;;4987030;28;20037;-84
2022/09/13 00:26:53;;;;;;;24.25;19.10;;;17.60;99.90;;;;;;4980229;28;20122;-84
2022/09/13 00:29:19;;;;;;;27.05;18.33;;;17.60;99.90;;;;;;4967342;28;20050;-84
2022/09/13 00:31:44;;;;;;;24.17;18.50;;;17.50;99.90;;;;;;4976786;28;20061;-84
2022/09/13 00:34:10;;;;;;;23.48;19.88;;;17.50;99.90;;;;;;4969945;28;20069;-84
2022/09/13 00:36:36;;;;;;;28.50;19.63;;;17.60;99.90;;;;;;4966966;28;20755;-84
2022/09/13 00:39:01;;;;;;;30.08;19.48;;;17.50;99.90;;;;;;4982379;28;20407;-84
2022/09/13 00:41:27;;;;;;;23.02;16.63;;;17.50;99.90;;;;;;4971729;28;20138;-84
2022/09/13 00:43:56;;;;;;;30.52;20.73;;;17.50;99.90;;;;;;4976661;28;20411;-85
2022/09/13 00:46:25;;;;;;;28.35;20.40;;;17.50;99.90;;;;;;4960341;28;20046;-84
2022/09/13 00:48:55;;;;;;;27.05;20.40;;;17.50;99.90;;;;;;4966882;28;20483;-84
2022/09/13 00:51:21;;;;;;;29.75;20.98;;;17.50;99.90;;;;;;4970071;28;20499;-84
2022/09/13 00:53:51;;;;;;;24.50;19.33;;;17.50;99.90;;;;;;4986343;28;20129;-84
2022/09/13 00:56:29;;;;;;;25.45;19.30;;;17.40;99.90;;;;;;4970304;28;20061;-84
2022/09/13 00:59:00;;;;;;;25.15;17.70;;;17.40;99.90;;;;;;4977853;28;20129;-84
2022/09/13 01:01:32;;;;;;;30.35;21.13;;;17.40;99.90;;;;;;4977841;28;20093;-84
2022/09/13 01:03:57;;;;;;;27.67;20.05;;;17.40;99.90;;;;;;4966657;28;20042;-85
2022/09/13 01:06:28;;;;;;;26.88;19.30;;;17.40;99.90;;;;;;4977624;28;20424;-84
2022/09/13 01:08:57;;;;;;;26.63;20.40;;;17.40;99.90;;;;;;4984668;28;20078;-84
2022/09/13 01:11:31;;;;;;;26.67;19.42;;;17.40;99.90;;;;;;4983898;28;20072;-84
2022/09/13 01:13:57;;;;;;;27.10;19.15;;;17.40;99.90;;;;;;4979479;28;20038;-84
2022/09/13 01:16:24;;;;;;;26.52;18.33;;;17.50;99.90;;;;;;4979901;28;20043;-84
2022/09/13 01:18:49;;;;;;;24.23;17.30;;;17.40;99.90;;;;;;4982612;28;20597;-84
2022/09/13 01:21:26;;;;;;;24.33;17.25;;;17.50;99.90;;;;;;4966984;28;20046;-84
2022/09/13 01:24:13;;;;;;;20.67;16.40;;;17.40;99.90;;;;;;4969435;28;20467;-83
2022/09/13 01:26:53;;;;;;;20.50;14.98;;;17.40;99.90;;;;;;4971006;28;20039;-83
2022/09/13 01:29:53;;;;;;;19.60;14.23;;;17.40;99.90;;;;;;4974436;28;20046;-84
2022/09/13 01:32:27;;;;;;;21.13;15.57;;;17.40;99.90;;;;;;4967620;28;20042;-84
2022/09/13 01:35:13;;;;;;;20.75;15.43;;;17.40;99.90;;;;;;4964561;28;20041;-83
2022/09/13 01:38:05;;;;;;;20.55;14.57;;;17.40;99.90;;;;;;4981997;28;20043;-84
2022/09/13 01:41:04;;;;;;;20.90;14.55;;;17.40;99.90;;;;;;4976007;28;20153;-84
2022/09/13 01:43:48;;;;;;;20.52;15.27;;;17.40;99.90;;;;;;4984161;28;20057;-84
2022/09/13 01:46:24;;;;;;;19.48;14.82;;;17.40;99.90;;;;;;4969996;28;20078;-84
2022/09/13 01:48:57;;;;;;;21.67;15.55;;;17.30;99.90;;;;;;4949404;28;20532;-84
2022/09/13 01:51:53;;;;;;;23.07;15.47;;;17.30;99.90;;;;;;4977849;28;20051;-84
2022/09/13 01:54:37;;;;;;;20.45;14.40;;;17.30;99.90;;;;;;4982542;28;20121;-84
2022/09/13 01:57:35;;;;;;;21.02;14.88;;;17.30;99.90;;;;;;4978330;28;20077;-84
2022/09/13 02:00:09;;;;;;;21.40;15.18;;;17.30;99.90;;;;;;4944898;28;20362;-84
2022/09/13 02:03:03;;;;;;;20.63;15.02;;;17.30;99.90;;;;;;4967848;28;20059;-84
2022/09/13 02:05:58;;;;;;;20.20;15.05;;;17.30;99.90;;;;;;4963646;28;20082;-84
2022/09/13 02:08:53;;;;;;;21.27;15.55;;;17.30;99.90;;;;;;4976000;28;20078;-83
2022/09/13 02:11:21;;;;;;;19.38;14.93;;;17.30;99.90;;;;;;4953721;28;20071;-84
2022/09/13 02:14:02;;;;;;;22.10;16.23;;;17.20;99.90;;;;;;4978696;28;20039;-84
2022/09/13 02:16:30;;;;;;;20.10;15.05;;;17.20;99.90;;;;;;4979125;28;20095;-84
2022/09/13 02:19:06;;;;;;;19.65;15.70;;;17.20;99.90;;;;;;4977169;28;20082;-84
2022/09/13 02:21:38;;;;;;;21.80;15.25;;;17.30;99.90;;;;;;4968469;28;20057;-83
2022/09/13 02:24:11;;;;;;;19.70;14.82;;;17.20;99.90;;;;;;4983501;28;20057;-84
2022/09/13 02:26:39;;;;;;;21.90;14.05;;;17.20;99.90;;;;;;4966973;28;20058;-84
2022/09/13 02:29:09;;;;;;;17.98;14.27;;;17.10;99.90;;;;;;4981583;28;20057;-84
2022/09/13 02:31:40;;;;;;;21.95;16.10;;;17.20;99.90;;;;;;4969783;28;20043;-84
2022/09/13 02:34:13;;;;;;;23.30;15.27;;;17.10;99.90;;;;;;4977143;28;20050;-83
2022/09/13 02:36:40;;;;;;;21.92;15.68;;;17.10;99.90;;;;;;4973913;28;20082;-83
2022/09/13 02:39:16;;;;;;;22.17;16.08;;;17.20;99.90;;;;;;4982175;28;20461;-83
2022/09/13 02:42:01;;;;;;;24.02;15.90;;;17.10;99.90;;;;;;4974441;28;20043;-83
2022/09/13 02:44:36;;;;;;;19.70;14.93;;;17.00;99.90;;;;;;4980570;28;20042;-83
2022/09/13 02:47:34;;;;;;;24.13;17.02;;;17.00;99.90;;;;;;4988216;28;20295;-83
2022/09/13 02:50:18;;;;;;;26.77;17.00;;;17.00;99.90;;;;;;4978015;28;20084;-84
2022/09/13 02:53:02;;;;;;;26.15;17.20;;;17.00;99.90;;;;;;4976564;28;20050;-83
2022/09/13 02:55:34;;;;;;;25.50;18.17;;;17.10;99.90;;;;;;4980627;28;20534;-83
2022/09/13 02:58:08;;;;;;;25.20;18.58;;;17.00;99.90;;;;;;4982991;28;20130;-83
2022/09/13 03:00:34;;;;;;;27.88;18.40;;;17.00;99.90;;;;;;4987184;28;20042;-83
2022/09/13 03:03:05;;;;;;;26.38;18.73;;;16.90;99.90;;;;;;4982014;28;20077;-83
2022/09/13 03:05:31;;;;;;;25.35;18.40;;;17.00;99.90;;;;;;4961036;28;20051;-83
2022/09/13 03:07:58;;;;;;;26.65;18.50;;;17.00;99.90;;;;;;4974179;28;20049;-83
2022/09/13 03:10:30;;;;;;;27.08;20.23;;;17.00;99.90;;;;;;4970518;28;20043;-83
2022/09/13 03:13:23;;;;;;;25.98;18.52;;;17.00;99.90;;;;;;4981556;28;20047;-83
2022/09/13 03:16:18;;;;;;;25.10;18.80;;;17.10;99.90;;;;;;4972752;28;20047;-83
2022/09/13 03:18:55;;;;;;;26.35;19.02;;;17.10;99.90;;;;;;4973798;28;20054;-83
2022/09/13 03:21:51;;;;;;;25.27;19.48;;;17.10;99.90;;;;;;4985126;28;20050;-84
2022/09/13 03:24:24;;;;;;;26.27;19.83;;;17.10;99.90;;;;;;4973993;28;20569;-83
2022/09/13 03:27:28;;;;;;;30.23;21.38;;;17.10;99.90;;;;;;4970515;28;20039;-83
2022/09/13 03:29:59;;;;;;;26.75;20.50;;;17.10;99.90;;;;;;4961458;28;20496;-83
2022/09/13 03:32:42;;;;;;;30.95;20.55;;;17.10;99.90;;;;;;4970539;28;20056;-83
2022/09/13 03:35:41;;;;;;;31.33;21.40;;;17.10;99.90;;;;;;4970480;28;20053;-83
2022/09/13 03:38:15;;;;;;;24.38;18.17;;;17.20;99.90;;;;;;4970536;28;20046;-83
2022/09/13 03:40:58;;;;;;;24.80;18.95;;;17.20;99.90;;;;;;4978174;28;20117;-83
2022/09/13 03:43:50;;;;;;;28.58;21.20;;;17.20;99.90;;;;;;4987454;28;20035;-83
2022/09/13 03:46:25;;;;;;;28.45;19.20;;;17.20;99.90;;;;;;4959586;28;20046;-83
2022/09/13 03:48:52;;;;;;;25.70;17.63;;;17.20;99.90;;;;;;4965882;28;20038;-83
2022/09/13 03:51:18;;;;;;;24.55;17.17;;;17.20;99.90;;;;;;4949657;28;20062;-83
2022/09/13 03:53:55;;;;;;;29.08;18.45;;;17.30;99.90;;;;;;4984094;28;20376;-83
2022/09/13 03:56:21;;;;;;;23.92;15.88;;;17.20;99.90;;;;;;4980605;28;20495;-83
2022/09/13 03:58:47;;;;;;;22.35;16.77;;;17.20;99.90;;;;;;4976030;28;20049;-83
2022/09/13 04:01:13;;;;;;;20.70;14.77;;;17.20;99.90;;;;;;4985098;28;20062;-83
2022/09/13 04:03:39;;;;;;;21.67;13.45;;;17.30;99.90;;;;;;4964701;28;20058;-83
2022/09/13 04:06:05;;;;;;;14.88;10.73;;;17.20;99.90;;;;;;4990971;28;20041;-83
2022/09/13 04:08:32;;;;;;;16.35;10.85;;;17.20;99.90;;;;;;4965238;28;20437;-83
2022/09/13 04:10:58;;;;;;;13.98;10.60;;;17.30;99.90;;;;;;4978599;28;20372;-83
2022/09/13 04:13:24;;;;;;;13.27;9.15;;;17.50;99.90;;;;;;4982533;28;20120;-83
2022/09/13 04:15:49;;;;;;;16.10;9.50;;;17.30;99.90;;;;;;4967262;28;20105;-83
2022/09/13 04:18:16;;;;;;;14.32;9.10;;;17.30;99.90;;;;;;4955805;28;20050;-84
2022/09/13 04:20:42;;;;;;;15.18;9.10;;;17.30;99.90;;;;;;4974510;28;20054;-83
2022/09/13 04:23:08;;;;;;;14.02;9.07;;;17.40;99.90;;;;;;4978989;28;20038;-83
2022/09/13 04:25:37;;;;;;;13.32;9.43;;;17.30;99.90;;;;;;4971359;28;20093;-83
2022/09/13 04:28:02;;;;;;;13.75;9.05;;;17.30;99.90;;;;;;4984523;28;20049;-83
2022/09/13 04:30:28;;;;;;;14.43;9.07;;;17.30;99.90;;;;;;4986990;28;20055;-83
2022/09/13 04:32:58;;;;;;;12.52;7.53;;;17.30;99.90;;;;;;4979330;28;20046;-83
2022/09/13 04:35:24;;;;;;;14.20;8.93;;;17.30;99.90;;;;;;4962569;28;20443;-83
2022/09/13 04:37:49;;;;;;;14.00;9.15;;;17.30;99.90;;;;;;4977417;28;20047;-83
2022/09/13 04:40:15;;;;;;;14.65;9.68;;;17.30;99.90;;;;;;4967328;28;20505;-82
2022/09/13 04:42:43;;;;;;;10.95;7.35;;;17.40;99.90;;;;;;4976782;28;20395;-83
2022/09/13 04:45:09;;;;;;;13.80;8.38;;;17.30;99.90;;;;;;4975046;28;20078;-83
2022/09/13 04:47:35;;;;;;;12.57;7.60;;;17.30;99.90;;;;;;4969330;28;21663;-83
2022/09/13 04:50:00;;;;;;;9.13;6.45;;;17.30;99.90;;;;;;4968201;28;20053;-83
2022/09/13 04:52:26;;;;;;;10.93;6.97;;;17.30;99.90;;;;;;4980164;28;20422;-83
2022/09/13 04:54:52;;;;;;;10.27;6.30;;;17.30;99.90;;;;;;4970516;28;20125;-82
2022/09/13 04:57:17;;;;;;;7.95;5.25;;;17.30;99.90;;;;;;4978349;28;20042;-82
2022/09/13 04:59:43;;;;;;;8.35;5.40;;;17.20;99.90;;;;;;4978523;28;20042;-83
2022/09/13 05:02:09;;;;;;;9.90;5.32;;;17.20;99.90;;;;;;4984023;28;20043;-83
2022/09/13 05:04:34;;;;;;;10.70;5.68;;;17.30;99.90;;;;;;4957775;28;20466;-82
2022/09/13 05:07:00;;;;;;;7.47;4.40;;;17.30;99.90;;;;;;4978207;28;20499;-83
2022/09/13 05:09:26;;;;;;;8.00;4.75;;;17.30;99.90;;;;;;4963587;28;20058;-83
2022/09/13 05:11:51;;;;;;;10.07;3.90;;;17.30;99.90;;;;;;4975169;28;20050;-83
2022/09/13 05:14:17;;;;;;;8.40;3.63;;;17.30;99.90;;;;;;4960720;28;20042;-83
2022/09/13 05:16:42;;;;;;;6.85;4.05;;;17.30;99.90;;;;;;4986057;28;20078;-83
2022/09/13 05:19:10;;;;;;;10.45;3.63;;;17.30;99.90;;;;;;4969996;28;20049;-83
2022/09/13 05:21:36;;;;;;;10.05;3.50;;;17.20;99.90;;;;;;4954172;28;20121;-83
2022/09/13 05:24:01;;;;;;;7.03;3.60;;;17.50;99.90;;;;;;4966375;28;20129;-83
2022/09/13 05:26:30;;;;;;;5.97;3.10;;;17.60;99.90;;;;;;4974560;28;20057;-82
2022/09/13 05:28:56;;;;;;;6.97;2.83;;;17.30;99.90;;;;;;4984148;28;20542;-83
2022/09/13 05:31:25;;;;;;;7.40;3.22;;;17.30;99.90;;;;;;4979099;28;20052;-82
2022/09/13 05:33:59;;;;;;;6.97;3.00;;;17.30;99.90;;;;;;4977359;28;20050;-83
2022/09/13 05:36:25;;;;;;;;;;;17.30;99.90;;;;;;4953699;28;20129;-83
2022/09/13 05:38:54;;;;;;;7.35;2.55;;;17.80;99.90;;;;;;4977836;28;20013;-82
2022/09/13 05:41:20;;;;;;;6.97;2.67;;;17.30;99.90;;;;;;4970945;28;20137;-83
2022/09/13 05:43:45;;;;;;;7.93;2.53;;;17.30;99.90;;;;;;4959918;28;20547;-82
2022/09/13 05:46:13;;;;;;;5.57;2.45;;;17.30;99.90;;;;;;4972494;28;20046;-82
2022/09/13 05:48:40;;;;;;;6.40;2.35;;;17.20;99.90;;;;;;4970624;28;20035;-82
2022/09/13 05:51:10;;;;;;;6.57;2.45;;;17.20;99.90;;;;;;4969045;28;20442;-82
2022/09/13 05:53:40;;;;;;;6.32;2.03;;;17.20;99.90;;;;;;4975616;28;20038;-84
2022/09/13 05:56:07;;;;;;;5.50;2.30;;;17.30;99.90;;;;;;4956486;28;20407;-84
2022/09/13 05:58:34;;;;;;;8.10;2.50;;;17.50;99.90;;;;;;4971819;28;20046;-84
2022/09/13 06:00:59;;;;;;;7.32;2.60;;;17.20;99.90;;;;;;4965787;28;20058;-85
2022/09/13 06:03:25;;;;;;;3.95;2.08;;;17.20;99.90;;;;;;4960254;28;20069;-84
2022/09/13 06:05:57;;;;;;;5.97;1.75;;;17.20;99.90;;;;;;4978411;28;20039;-83
2022/09/13 06:08:25;;;;;;;9.90;2.45;;;17.20;99.90;;;;;;4986229;28;20037;-83
2022/09/13 06:10:59;;;;;;;6.28;1.85;;;17.10;99.90;;;;;;4983078;28;20072;-85
2022/09/13 06:13:26;;;;;;;6.13;1.95;;;17.20;99.90;;;;;;4978286;28;20046;-85
2022/09/13 06:15:53;;;;;;;7.60;2.22;;;17.10;99.90;;;;;;4984059;28;20042;-81
2022/09/13 06:18:19;;;;;;;7.70;2.20;;;17.10;99.90;;;;;;4973516;28;20050;-84
2022/09/13 06:20:45;;;;;;;5.75;1.73;;;17.10;99.90;;;;;;4979272;28;20069;-84
2022/09/13 06:23:10;;;;;;;6.20;1.70;;;17.10;99.90;;;;;;4982688;28;20129;-84
2022/09/13 06:25:36;;;;;;;6.05;1.90;;;17.10;99.90;;;;;;4955247;28;20042;-85
2022/09/13 06:28:02;;;;;;;5.40;1.60;;;17.10;99.90;;;;;;4982776;28;20046;-84
2022/09/13 06:30:28;;;;;;;6.32;2.00;;;17.00;99.90;;;;;;4946210;28;20035;-83
2022/09/13 06:32:58;;;;;;;6.28;2.10;;;17.20;99.90;;;;;;4955726;28;20377;-83
2022/09/13 06:35:23;;;;;;;7.82;1.88;;;17.20;99.90;;;;;;4957504;28;20039;-83
2022/09/13 06:37:50;;;;;;;4.88;1.95;;;17.20;99.90;;;;;;4970068;28;20058;-83
2022/09/13 06:40:16;;;;;;;6.43;1.67;;;17.20;99.90;;;;;;4955154;28;20057;-83
2022/09/13 06:42:42;;;;;;;3.55;1.45;;;17.20;99.90;;;;;;4969933;28;20394;-83
2022/09/13 06:45:08;;;;;;;6.40;1.73;;;17.30;99.90;;;;;;4966466;28;20461;-82
2022/09/13 06:47:34;;;;;;;7.45;1.80;;;17.30;99.90;;;;;;4951956;28;20049;-82
2022/09/13 06:50:00;;;;;;;8.18;1.77;;;17.40;99.90;;;;;;4976274;28;20061;-81
2022/09/13 06:52:26;;;;;;;3.72;1.83;;;17.50;99.90;;;;;;4964864;28;20050;-81
2022/09/13 06:54:52;;;;;;;4.45;1.60;;;17.50;99.90;;;;;;4973030;28;20069;-81
2022/09/13 06:57:18;;;;;;;5.72;1.83;;;17.50;99.90;;;;;;4982892;28;20038;-81
2022/09/13 06:59:44;;;;;;;7.25;1.90;;;17.60;99.90;;;;;;4990228;28;20049;-81
2022/09/13 07:02:12;;;;;;;5.03;1.75;;;17.60;99.90;;;;;;4985529;28;20392;-81
2022/09/13 07:04:37;;;;;;;5.18;1.42;;;17.60;99.90;;;;;;4970464;28;20458;-81
2022/09/13 07:07:03;;;;;;;5.90;1.77;;;17.50;99.90;;;;;;4987268;28;20046;-81
2022/09/13 07:09:28;;;;;;;7.65;1.73;;;17.60;99.90;;;;;;4978386;28;20507;-81
2022/09/13 07:11:55;;;;;;;7.55;1.77;;;17.60;99.90;;;;;;4989244;28;20694;-81
2022/09/13 07:14:26;;;;;;;8.77;2.25;;;17.60;99.90;;;;;;4986032;28;20745;-81
2022/09/13 07:16:52;;;;;;;8.35;2.20;;;17.70;99.90;;;;;;4980708;28;20148;-81
2022/09/13 07:19:21;;;;;;;5.93;1.33;;;17.70;99.90;;;;;;4973397;28;20050;-82
2022/09/13 07:21:48;;;;;;;6.22;1.73;;;17.80;99.90;;;;;;4988417;28;20065;-81
2022/09/13 07:24:18;;;;;;;6.38;1.20;;;17.90;99.90;;;;;;4974271;28;20046;-81
2022/09/13 07:26:45;;;;;;;6.78;1.30;;;18.00;99.90;;;;;;4978196;28;20410;-81
2022/09/13 07:29:17;;;;;;;4.28;1.50;;;18.00;99.90;;;;;;4970482;28;20622;-81
2022/09/13 07:31:45;;;;;;;8.30;1.15;;;18.00;99.90;;;;;;4954140;28;20491;-81
2022/09/13 07:34:13;;;;;;;6.75;1.00;;;18.00;99.90;;;;;;4956541;28;20096;-81
2022/09/13 07:36:39;;;;;;;5.22;1.38;;;18.00;99.90;;;;;;4978937;28;20496;-81
2022/09/13 07:39:05;;;;;;;9.25;1.20;;;17.90;99.90;;;;;;4966463;28;20116;-81
2022/09/13 07:41:32;;;;;;;7.32;1.38;;;17.90;99.90;;;;;;4985285;28;20089;-81
2022/09/13 07:44:00;;;;;;;10.02;1.70;;;17.90;99.90;;;;;;4986548;28;20483;-81
2022/09/13 07:46:30;;;;;;;6.20;1.20;;;17.90;99.90;;;;;;4985501;28;20046;-81
2022/09/13 07:48:57;;;;;;;8.25;1.23;;;17.90;99.90;;;;;;4979472;28;20039;-81
2022/09/13 07:51:28;;;;;;;6.28;1.00;;;17.90;99.90;;;;;;4983000;28;20046;-81
2022/09/13 07:53:56;;;;;;;6.93;1.50;;;17.90;99.90;;;;;;4974193;28;20100;-81
2022/09/13 07:56:24;;;;;;;4.13;1.00;;;17.90;99.90;;;;;;4983331;28;20163;-81
2022/09/13 07:58:51;;;;;;;5.93;0.98;;;17.90;99.90;;;;;;4981358;28;20715;-81
2022/09/13 08:01:20;;;;;;;6.47;1.25;;;17.90;99.90;;;;;;4966767;28;20047;-81
2022/09/13 08:03:57;;;;;;;6.60;1.02;;;17.90;99.90;;;;;;4988179;28;20054;-81
2022/09/13 08:06:24;;;;;;;4.30;0.90;;;17.90;99.90;;;;;;4984709;28;20081;-81
2022/09/13 08:08:50;;;;;;;7.05;0.98;;;18.00;99.90;;;;;;4972909;28;20050;-81
2022/09/13 08:11:18;;;;;;;4.90;1.08;;;18.30;99.90;;;;;;4973441;28;20046;-81
2022/09/13 08:13:45;;;;;;;5.93;0.80;;;18.00;99.90;;;;;;4978975;28;20046;-80
2022/09/13 08:16:11;;;;;;;6.35;0.90;;;18.00;99.90;;;;;;4965404;28;20042;-81
2022/09/13 08:18:36;;;;;;;4.72;0.90;;;17.90;99.90;;;;;;4953769;28;20046;-80
2022/09/13 08:21:02;;;;;;;3.63;0.60;;;17.80;99.90;;;;;;4964895;28;20034;-81
2022/09/13 08:23:28;;;;;;;4.20;0.65;;;17.80;99.90;;;;;;4983315;28;20082;-81
2022/09/13 08:25:58;;;;;;;7.20;0.80;;;17.70;99.90;;;;;;4988067;28;20035;-81
2022/09/13 08:28:24;;;;;;;2.92;0.63;;;17.70;99.90;;;;;;4965566;28;20073;-81
2022/09/13 08:30:50;;;;;;;5.32;0.70;;;17.80;99.90;;;;;;4967507;28;20515;-81
2022/09/13 08:33:15;;;;;;;4.60;0.60;;;17.70;99.90;;;;;;4986229;28;20072;-80
2022/09/13 08:35:50;;;;;;;7.68;0.60;;;17.80;99.90;;;;;;4971100;28;20046;-81
2022/09/13 08:38:15;;;;;;;6.53;0.90;;;17.80;99.90;;;;;;4973589;28;20070;-81
2022/09/13 08:40:46;;;;;;;2.92;0.70;;;17.80;99.90;;;;;;4984791;28;20072;-80
2022/09/13 08:43:39;;;;;;;6.78;1.00;;;17.80;99.90;;;;;;4960826;28;20046;-81
2022/09/13 08:46:22;;;;;;;5.18;0.88;;;17.90;99.90;;;;;;4972034;28;20050;-81
2022/09/13 08:48:51;;;;;;;6.13;0.60;;;18.10;99.90;;;;;;4967103;28;20047;-81
2022/09/13 08:51:32;;;;;;;7.32;1.00;;;18.20;99.90;;;;;;4965148;28;20471;-81
2022/09/13 08:53:58;;;;;;;7.13;0.70;;;18.30;99.90;;;;;;4974990;28;20039;-81
2022/09/13 08:56:34;;;;;;;3.92;1.15;;;18.40;99.90;;;;;;4968821;28;20404;-81
2022/09/13 08:59:04;;;;;;;5.57;1.08;;;18.50;99.90;;;;;;4972271;28;20042;-81
2022/09/13 09:01:56;;;;;;;6.18;1.02;;;18.60;99.90;;;;;;4957629;28;20563;-81
2022/09/13 09:04:25;;;;;;;4.88;0.88;;;18.60;99.90;;;;;;4976280;28;20072;-81
2022/09/13 09:07:11;;;;;;;8.35;0.65;;;18.50;99.90;;;;;;4980544;28;20053;-80
2022/09/13 09:09:53;;;;;;;7.35;0.70;;;18.50;99.90;;;;;;4981808;28;20057;-80
2022/09/13 09:12:57;;;;;;;4.57;0.60;;;18.50;99.90;;;;;;4979672;28;20495;-80
2022/09/13 09:15:28;;;;;;;6.35;0.90;;;18.50;99.90;;;;;;4977872;28;20054;-80
2022/09/13 09:18:03;;;;;;;7.57;0.60;;;18.70;99.90;;;;;;4978429;28;20138;-81
2022/09/13 09:20:46;;;;;;;7.03;0.85;;;18.90;99.90;;;;;;4968470;28;20125;-81
2022/09/13 09:23:22;;;;;;;8.52;0.77;;;19.00;99.90;;;;;;4980942;28;20046;-80
2022/09/13 09:26:10;;;;;;;10.27;0.80;;;19.20;99.90;;;;;;4984293;28;20044;-82
2022/09/13 09:28:35;;;;;;;4.03;0.50;;;19.20;99.90;;;;;;4975737;28;20126;-82
2022/09/13 09:31:07;;;;;;;5.88;0.80;;;19.50;99.90;;;;;;4970452;28;20118;-82
2022/09/13 09:33:41;;;;;;;7.47;0.82;;;19.60;99.90;;;;;;4971824;28;20136;-82
2022/09/13 09:36:07;;;;;;;5.38;0.70;;;19.70;99.90;;;;;;4971288;28;20531;-82
2022/09/13 09:38:41;;;;;;;5.45;0.70;;;19.80;99.90;;;;;;4975142;28;20046;-82
2022/09/13 09:41:31;;;;;;;2.90;0.60;;;19.90;99.90;;;;;;4984809;28;20034;-82
2022/09/13 09:44:18;;;;;;;7.50;0.93;;;19.90;99.90;;;;;;4970280;28;20060;-82
2022/09/13 09:46:53;;;;;;;5.43;0.70;;;19.90;99.90;;;;;;4969247;28;20105;-82
2022/09/13 09:52:07;;;;;;;2.38;0.50;;;19.80;99.90;;;;;;4978858;28;20515;-82
2022/09/13 09:54:34;;;;;;;3.20;0.40;;;19.70;99.90;;;;;;4963438;28;20042;-82
2022/09/13 09:57:00;;;;;;;5.82;0.90;;;19.80;99.90;;;;;;4959790;28;20035;-82
2022/09/13 09:59:30;;;;;;;6.95;1.27;;;19.70;99.90;;;;;;4960168;28;20047;-82
2022/09/13 10:01:56;;;;;;;7.57;0.68;;;19.60;99.90;;;;;;4965958;28;20090;-82
2022/09/13 10:04:23;;;;;;;6.50;0.57;;;19.50;99.90;;;;;;4967417;28;20393;-82
2022/09/13 10:07:06;;;;;;;7.60;0.70;;;19.80;99.90;;;;;;4951440;28;20538;-82
2022/09/13 10:09:32;;;;;;;7.10;0.63;;;19.90;99.90;;;;;;4946704;28;20067;-82
2022/09/13 10:11:59;;;;;;;4.82;0.50;;;20.20;99.90;;;;;;4969076;28;20042;-82
2022/09/13 10:14:37;;;;;;;4.53;0.60;;;20.40;99.90;;;;;;4949727;28;20115;-82
2022/09/13 10:17:11;;;;;;;6.45;0.63;;;20.60;99.90;;;;;;4964376;28;20138;-82
2022/09/13 10:19:37;;;;;;;;;;;20.70;99.90;;;;;;4952450;28;20086;-82
2022/09/13 10:22:11;;;;;;;6.75;0.98;;;20.60;99.90;;;;;;4951833;28;19926;-82
2022/09/13 10:24:37;;;;;;;3.88;0.75;;;20.70;99.90;;;;;;4966229;28;20084;-82
2022/09/13 10:27:16;;;;;;;3.45;0.57;;;20.70;99.90;;;;;;4968490;28;20543;-82
2022/09/13 10:29:49;;;;;;;7.70;0.90;;;20.70;99.90;;;;;;4968459;28;20059;-83
2022/09/13 10:32:18;;;;;;;6.97;0.68;;;20.90;99.90;;;;;;4950449;28;20046;-81
2022/09/13 10:34:45;;;;;;;4.55;0.70;;;21.10;99.90;;;;;;4947446;28;20054;-81
2022/09/13 10:37:13;;;;;;;7.75;0.95;;;21.20;99.90;;;;;;4967980;28;20054;-82
2022/09/13 10:40:05;;;;;;;4.78;0.70;;;21.30;99.90;;;;;;4967867;28;20045;-81
2022/09/13 10:42:31;;;;;;;6.30;0.65;;;21.20;99.90;;;;;;4966710;28;20535;-82
2022/09/13 10:45:06;;;;;;;4.70;0.55;;;21.20;99.90;;;;;;4967631;28;20049;-82
2022/09/13 10:47:38;;;;;;;4.43;0.50;;;21.30;99.90;;;;;;4966815;28;20054;-81
2022/09/13 10:50:24;;;;;;;6.50;1.10;;;21.50;99.90;;;;;;4951786;28;20115;-82
2022/09/13 10:52:57;;;;;;;5.18;0.70;;;21.70;99.90;;;;;;4966935;28;20092;-81
2022/09/13 10:55:35;;;;;;;4.47;0.52;;;21.80;99.90;;;;;;4964892;28;20069;-82
2022/09/13 10:58:00;;;;;;;4.80;0.82;;;21.70;99.90;;;;;;4967444;28;20071;-81
2022/09/13 11:01:04;;;;;;;8.93;0.88;;;21.60;99.90;;;;;;4950208;28;20040;-82
2022/09/13 11:03:55;;;;;;;6.07;0.68;;;21.40;99.90;;;;;;4948143;28;20137;-81
2022/09/13 11:06:39;;;;;;;7.40;0.70;;;21.30;99.90;;;;;;4965583;28;20389;-80
2022/09/13 11:09:17;;;;;;;4.63;0.55;;;21.40;99.90;;;;;;4951954;28;20043;-80
2022/09/13 11:12:17;;;;;;;5.95;0.60;;;21.60;99.90;;;;;;4966988;28;20081;-81
2022/09/13 11:15:18;;;;;;;6.95;0.80;;;21.80;99.90;;;;;;4952791;28;20043;-81
2022/09/13 11:18:13;;;;;;;7.28;0.57;;;22.00;99.90;;;;;;4968820;28;20050;-81
2022/09/13 11:20:59;;;;;;;6.50;0.60;;;22.20;99.90;;;;;;4953509;28;20401;-81
2022/09/13 11:23:57;;;;;;;7.13;0.80;;;22.10;99.90;;;;;;4952374;28;20058;-81
2022/09/13 11:26:47;;;;;;;2.63;0.68;;;22.10;99.90;;;;;;4930062;28;20054;-80
2022/09/13 11:29:57;;;;;;;5.43;0.68;;;22.10;99.90;;;;;;4969555;28;20046;-81
2022/09/13 11:32:32;;;;;;;5.00;0.70;;;22.30;99.90;;;;;;4951665;28;20507;-82
2022/09/13 11:35:26;;;;;;;4.55;0.50;;;22.50;99.90;;;;;;4950293;28;20203;-84
2022/09/13 11:38:14;;;;;;;5.68;0.80;;;22.70;99.90;;;;;;4938014;28;20050;-81
2022/09/13 11:41:11;;;;;;;4.30;0.68;;;22.90;99.90;;;;;;4950314;28;20047;-80
2022/09/13 11:43:53;;;;;;;4.18;0.60;;;23.00;98.10;;;;;;4969280;28;20053;-81
2022/09/13 11:46:25;;;;;;;5.00;0.77;;;23.00;98.40;;;;;;4952235;28;20042;-81
2022/09/13 11:49:14;;;;;;;5.10;0.60;;;23.00;99.80;;;;;;4969318;28;20039;-80
2022/09/13 11:51:50;;;;;;;4.90;0.52;;;22.90;99.50;;;;;;4935980;28;20055;-80
2022/09/13 11:54:46;;;;;;;4.97;0.75;;;23.00;98.80;;;;;;4951825;28;20050;-80
2022/09/13 11:57:25;;;;;;;5.07;0.60;;;23.00;97.70;;;;;;4969687;28;20043;-80
2022/09/13 11:59:57;;;;;;;4.57;0.70;;;23.00;97.80;;;;;;4970215;28;20058;-80
2022/09/13 12:02:55;;;;;;;5.25;0.40;;;23.20;98.30;;;;;;4971254;28;20055;-80
2022/09/13 12:05:23;;;;;;;5.40;0.50;;;23.20;98.10;;;;;;4968877;28;20578;-80
2022/09/13 12:08:00;;;;;;;4.50;0.50;;;23.20;98.60;;;;;;4964781;28;20042;-80
2022/09/13 12:10:33;;;;;;;1.85;0.45;;;23.20;98.20;;;;;;4969831;28;20605;-80
2022/09/13 12:13:01;;;;;;;5.63;0.73;;;23.20;99.00;;;;;;4969243;28;20097;-80
2022/09/13 12:15:37;;;;;;;3.45;0.50;;;23.20;98.00;;;;;;4970808;28;20558;-82
2022/09/13 12:18:09;;;;;;;5.88;0.60;;;23.20;97.70;;;;;;4971333;28;20418;-80
2022/09/13 12:20:43;;;;;;;6.70;0.73;;;23.20;97.80;;;;;;4969812;28;20074;-81
2022/09/13 12:23:14;;;;;;;4.95;0.50;;;23.20;98.40;;;;;;4967001;28;20046;-80
2022/09/13 12:25:46;;;;;;;8.30;0.70;;;23.30;98.30;;;;;;4964947;28;20082;-81
2022/09/13 12:28:34;;;;;;;9.75;0.85;;;23.30;97.60;;;;;;4969569;28;20627;-81
2022/09/13 12:31:06;;;;;;;4.03;0.77;;;22.90;97.30;;;;;;4967927;28;20043;-80
2022/09/13 12:33:32;;;;;;;10.15;0.85;;;22.90;98.40;;;;;;4953000;28;20492;-80
2022/09/13 12:36:32;;;;;;;5.45;0.70;;;22.80;98.40;;;;;;4952888;28;20484;-80
2022/09/13 12:39:00;;;;;;;7.00;0.70;;;22.80;97.70;;;;;;4951609;28;20042;-80
2022/09/13 12:42:11;;;;;;;5.63;0.73;;;22.80;98.50;;;;;;4953169;28;20094;-80
2022/09/13 12:44:44;;;;;;;10.77;0.82;;;22.80;97.50;;;;;;4910012;29;20519;-81
2022/09/13 12:47:35;;;;;;;3.90;0.70;;;22.90;98.40;;;;;;4894428;29;20094;-80
2022/09/13 12:50:21;;;;;;;5.30;0.70;;;22.80;98.30;;;;;;4910627;29;20461;-80
2022/09/13 12:53:07;;;;;;;4.07;0.52;;;22.70;97.80;;;;;;4907755;29;20067;-80
2022/09/13 12:55:54;;;;;;;3.75;0.70;;;22.70;98.50;;;;;;4907184;29;20044;-80
2022/09/13 12:58:50;;;;;;;5.10;1.00;;;22.60;98.80;;;;;;4894169;29;20052;-80
2022/09/13 13:01:20;;;;;;;7.30;0.80;;;22.70;97.90;;;;;;4908697;29;20060;-80
2022/09/13 13:04:17;;;;;;;5.22;0.90;;;22.60;98.00;;;;;;4909877;29;20067;-80
2022/09/13 13:06:54;;;;;;;3.53;0.73;;;22.70;98.90;;;;;;4894752;29;20448;-81
2022/09/13 13:09:27;;;;;;;5.50;0.75;;;22.70;98.60;;;;;;4906287;29;20135;-80
2022/09/13 13:11:53;;;;;;;4.47;0.70;;;22.80;98.40;;;;;;4909781;29;20064;-81
2022/09/13 13:14:27;;;;;;;4.15;0.50;;;22.90;98.40;;;;;;4910140;29;20073;-81